sensor_id;sensor_type;location;lat;lon;timestamp;temperature;humidity
296;DHT22;132;48.770;9.200;2023-02-15T00:01:36;1.50;1.00
296;DHT22;132;48.770;9.200;2023-02-15T00:04:03;1.50;1.00
296;DHT22;132;48.770;9.200;2023-02-15T00:06:30;1.50;1.00
296;DHT22;132;48.770;9.200;2023-02-15T00:08:57;1.50;1.00
296;DHT22;132;48.770;9.200;2023-02-15T00:11:23;1.40;1.00
296;DHT22;132;48.770;9.200;2023-02-15T00:14:20;1.40;1.00
296;DHT22;132;48.770;9.200;2023-02-15T00:16:48;1.40;1.00
296;DHT22;132;48.770;9.200;2023-02-15T00:19:16;1.50;1.00
296;DHT22;132;48.770;9.200;2023-02-15T00:21:42;1.40;1.00
296;DHT22;132;48.770;9.200;2023-02-15T00:24:11;1.40;1.00
296;DHT22;132;48.770;9.200;2023-02-15T00:26:39;1.30;1.00
296;DHT22;132;48.770;9.200;2023-02-15T00:29:07;1.40;1.00
296;DHT22;132;48.770;9.200;2023-02-15T00:31:35;1.30;1.00
296;DHT22;132;48.770;9.200;2023-02-15T00:34:12;1.30;1.00
296;DHT22;132;48.770;9.200;2023-02-15T00:36:39;1.30;1.00
296;DHT22;132;48.770;9.200;2023-02-15T00:39:06;1.30;1.00
296;DHT22;132;48.770;9.200;2023-02-15T00:41:35;1.20;1.00
296;DHT22;132;48.770;9.200;2023-02-15T00:44:02;1.20;1.00
296;DHT22;132;48.770;9.200;2023-02-15T00:46:29;1.30;1.00
296;DHT22;132;48.770;9.200;2023-02-15T00:48:56;1.20;1.00
296;DHT22;132;48.770;9.200;2023-02-15T00:51:22;1.20;1.00
296;DHT22;132;48.770;9.200;2023-02-15T00:53:49;1.10;1.00
296;DHT22;132;48.770;9.200;2023-02-15T00:56:15;1.20;1.00
296;DHT22;132;48.770;9.200;2023-02-15T00:58:43;1.10;1.00
296;DHT22;132;48.770;9.200;2023-02-15T01:01:15;1.10;1.00
296;DHT22;132;48.770;9.200;2023-02-15T01:03:42;1.10;1.00
296;DHT22;132;48.770;9.200;2023-02-15T01:06:10;1.10;1.00
296;DHT22;132;48.770;9.200;2023-02-15T01:08:37;1.10;1.00
296;DHT22;132;48.770;9.200;2023-02-15T01:11:09;1.00;1.00
296;DHT22;132;48.770;9.200;2023-02-15T01:13:36;1.00;1.00
296;DHT22;132;48.770;9.200;2023-02-15T01:16:03;1.00;1.00
296;DHT22;132;48.770;9.200;2023-02-15T01:18:30;1.00;1.00
296;DHT22;132;48.770;9.200;2023-02-15T01:20:57;1.00;1.00
296;DHT22;132;48.770;9.200;2023-02-15T01:23:23;1.00;1.00
296;DHT22;132;48.770;9.200;2023-02-15T01:25:50;0.90;1.00
296;DHT22;132;48.770;9.200;2023-02-15T01:28:16;1.00;1.00
296;DHT22;132;48.770;9.200;2023-02-15T01:30:42;1.00;1.00
296;DHT22;132;48.770;9.200;2023-02-15T01:33:10;0.90;1.00
296;DHT22;132;48.770;9.200;2023-02-15T01:35:45;0.90;1.00
296;DHT22;132;48.770;9.200;2023-02-15T01:38:12;0.90;1.00
296;DHT22;132;48.770;9.200;2023-02-15T01:40:39;0.90;1.00
296;DHT22;132;48.770;9.200;2023-02-15T01:43:10;0.90;1.00
296;DHT22;132;48.770;9.200;2023-02-15T01:45:38;0.80;1.00
296;DHT22;132;48.770;9.200;2023-02-15T01:50:33;0.80;1.00
296;DHT22;132;48.770;9.200;2023-02-15T01:53:05;0.80;1.00
296;DHT22;132;48.770;9.200;2023-02-15T01:55:37;0.80;1.00
296;DHT22;132;48.770;9.200;2023-02-15T01:58:04;0.80;1.00
296;DHT22;132;48.770;9.200;2023-02-15T02:00:32;0.80;1.00
296;DHT22;132;48.770;9.200;2023-02-15T02:03:15;0.80;1.00
296;DHT22;132;48.770;9.200;2023-02-15T02:05:42;0.80;1.00
296;DHT22;132;48.770;9.200;2023-02-15T02:08:10;0.70;1.00
296;DHT22;132;48.770;9.200;2023-02-15T02:10:37;0.80;1.00
296;DHT22;132;48.770;9.200;2023-02-15T02:13:05;0.70;1.00
296;DHT22;132;48.770;9.200;2023-02-15T02:15:52;0.70;1.00
296;DHT22;132;48.770;9.200;2023-02-15T02:33:10;0.70;1.00
296;DHT22;132;48.770;9.200;2023-02-15T02:38:52;0.60;1.00
296;DHT22;132;48.770;9.200;2023-02-15T02:44:02;0.60;1.00
296;DHT22;132;48.770;9.200;2023-02-15T02:46:41;0.60;1.00
296;DHT22;132;48.770;9.200;2023-02-15T02:49:10;0.60;1.00
296;DHT22;132;48.770;9.200;2023-02-15T02:51:37;0.50;1.00
296;DHT22;132;48.770;9.200;2023-02-15T02:54:05;0.50;1.00
296;DHT22;132;48.770;9.200;2023-02-15T02:56:44;0.50;1.00
296;DHT22;132;48.770;9.200;2023-02-15T02:59:18;0.50;1.00
296;DHT22;132;48.770;9.200;2023-02-15T03:01:50;0.40;1.00
296;DHT22;132;48.770;9.200;2023-02-15T03:04:22;0.50;1.00
296;DHT22;132;48.770;9.200;2023-02-15T03:07:01;0.40;1.00
296;DHT22;132;48.770;9.200;2023-02-15T03:09:41;0.40;1.00
296;DHT22;132;48.770;9.200;2023-02-15T03:12:12;0.40;1.00
296;DHT22;132;48.770;9.200;2023-02-15T03:14:47;0.40;1.00
296;DHT22;132;48.770;9.200;2023-02-15T03:17:18;0.30;1.00
296;DHT22;132;48.770;9.200;2023-02-15T03:19:48;0.30;1.00
296;DHT22;132;48.770;9.200;2023-02-15T03:22:24;0.40;1.00
296;DHT22;132;48.770;9.200;2023-02-15T03:27:32;1.40;1.00
296;DHT22;132;48.770;9.200;2023-02-15T03:30:02;0.30;1.00
296;DHT22;132;48.770;9.200;2023-02-15T03:32:31;0.30;1.00
296;DHT22;132;48.770;9.200;2023-02-15T03:34:58;0.30;1.00
296;DHT22;132;48.770;9.200;2023-02-15T03:37:31;0.30;1.00
296;DHT22;132;48.770;9.200;2023-02-15T03:40:11;0.30;1.00
296;DHT22;132;48.770;9.200;2023-02-15T03:45:56;0.20;1.00
296;DHT22;132;48.770;9.200;2023-02-15T03:48:33;0.20;1.00
296;DHT22;132;48.770;9.200;2023-02-15T03:51:04;0.10;1.00
296;DHT22;132;48.770;9.200;2023-02-15T03:53:51;0.20;1.00
296;DHT22;132;48.770;9.200;2023-02-15T03:56:18;0.10;1.00
296;DHT22;132;48.770;9.200;2023-02-15T03:58:45;0.10;1.00
296;DHT22;132;48.770;9.200;2023-02-15T04:02:07;0.10;1.00
296;DHT22;132;48.770;9.200;2023-02-15T04:04:41;0.10;1.00
296;DHT22;132;48.770;9.200;2023-02-15T04:07:08;0.10;1.00
296;DHT22;132;48.770;9.200;2023-02-15T04:09:35;0.00;1.00
296;DHT22;132;48.770;9.200;2023-02-15T04:12:21;0.00;1.00
296;DHT22;132;48.770;9.200;2023-02-15T04:14:47;0.00;1.00
296;DHT22;132;48.770;9.200;2023-02-15T04:17:32;0.10;1.00
296;DHT22;132;48.770;9.200;2023-02-15T04:19:59;0.00;1.00
296;DHT22;132;48.770;9.200;2023-02-15T04:22:44;-0.10;1.00
296;DHT22;132;48.770;9.200;2023-02-15T04:25:30;0.00;1.00
296;DHT22;132;48.770;9.200;2023-02-15T04:27:56;-0.10;1.00
296;DHT22;132;48.770;9.200;2023-02-15T04:30:24;0.30;1.00
296;DHT22;132;48.770;9.200;2023-02-15T04:32:51;-0.10;1.00
296;DHT22;132;48.770;9.200;2023-02-15T04:35:18;-0.10;1.00
296;DHT22;132;48.770;9.200;2023-02-15T04:37:44;-0.20;1.00
296;DHT22;132;48.770;9.200;2023-02-15T04:40:13;-0.10;1.00
296;DHT22;132;48.770;9.200;2023-02-15T04:42:40;-0.20;1.00
296;DHT22;132;48.770;9.200;2023-02-15T04:45:06;-0.10;1.00
296;DHT22;132;48.770;9.200;2023-02-15T04:47:33;-0.20;1.00
296;DHT22;132;48.770;9.200;2023-02-15T04:49:59;-0.20;1.00
296;DHT22;132;48.770;9.200;2023-02-15T04:52:26;-0.20;1.00
296;DHT22;132;48.770;9.200;2023-02-15T04:54:52;-0.10;1.00
296;DHT22;132;48.770;9.200;2023-02-15T04:57:19;-0.20;1.00
296;DHT22;132;48.770;9.200;2023-02-15T04:59:45;-0.20;1.00
296;DHT22;132;48.770;9.200;2023-02-15T05:02:12;-0.20;1.00
296;DHT22;132;48.770;9.200;2023-02-15T05:04:38;-0.20;1.00
296;DHT22;132;48.770;9.200;2023-02-15T05:07:05;-0.20;1.00
296;DHT22;132;48.770;9.200;2023-02-15T05:09:31;-0.30;1.00
296;DHT22;132;48.770;9.200;2023-02-15T05:11:58;-0.30;1.00
296;DHT22;132;48.770;9.200;2023-02-15T05:14:24;-0.10;1.00
296;DHT22;132;48.770;9.200;2023-02-15T05:16:51;-0.30;1.00
296;DHT22;132;48.770;9.200;2023-02-15T05:19:17;-0.30;1.00
296;DHT22;132;48.770;9.200;2023-02-15T05:21:44;-0.30;1.00
296;DHT22;132;48.770;9.200;2023-02-15T05:24:10;-0.30;1.00
296;DHT22;132;48.770;9.200;2023-02-15T05:26:55;-0.30;1.00
296;DHT22;132;48.770;9.200;2023-02-15T05:29:40;-0.40;1.00
296;DHT22;132;48.770;9.200;2023-02-15T05:32:07;-0.30;1.00
296;DHT22;132;48.770;9.200;2023-02-15T05:34:33;-0.30;1.00
296;DHT22;132;48.770;9.200;2023-02-15T05:37:00;-0.30;1.00
296;DHT22;132;48.770;9.200;2023-02-15T05:39:26;-0.30;1.00
296;DHT22;132;48.770;9.200;2023-02-15T05:41:52;-0.40;1.00
296;DHT22;132;48.770;9.200;2023-02-15T05:44:19;0.10;1.00
296;DHT22;132;48.770;9.200;2023-02-15T05:46:45;-0.40;1.00
296;DHT22;132;48.770;9.200;2023-02-15T05:49:12;-0.50;1.00
296;DHT22;132;48.770;9.200;2023-02-15T05:51:38;-0.50;1.00
296;DHT22;132;48.770;9.200;2023-02-15T05:54:05;-0.50;1.00
296;DHT22;132;48.770;9.200;2023-02-15T05:56:31;-0.50;1.00
296;DHT22;132;48.770;9.200;2023-02-15T05:58:58;-0.50;1.00
296;DHT22;132;48.770;9.200;2023-02-15T06:01:24;-0.60;1.00
296;DHT22;132;48.770;9.200;2023-02-15T06:03:51;-1.20;1.00
296;DHT22;132;48.770;9.200;2023-02-15T06:06:18;-0.50;1.00
296;DHT22;132;48.770;9.200;2023-02-15T06:08:44;-0.50;1.00
296;DHT22;132;48.770;9.200;2023-02-15T06:11:11;-0.50;1.00
296;DHT22;132;48.770;9.200;2023-02-15T06:13:37;-0.50;1.00
296;DHT22;132;48.770;9.200;2023-02-15T06:16:04;-0.50;1.00
296;DHT22;132;48.770;9.200;2023-02-15T06:18:30;-0.60;1.00
296;DHT22;132;48.770;9.200;2023-02-15T06:20:57;-0.60;1.00
296;DHT22;132;48.770;9.200;2023-02-15T06:23:23;-0.60;1.00
296;DHT22;132;48.770;9.200;2023-02-15T06:25:50;-0.60;1.00
296;DHT22;132;48.770;9.200;2023-02-15T06:28:16;-0.70;1.00
296;DHT22;132;48.770;9.200;2023-02-15T06:30:42;-0.70;1.00
296;DHT22;132;48.770;9.200;2023-02-15T06:33:09;-0.70;1.00
296;DHT22;132;48.770;9.200;2023-02-15T06:35:35;-0.70;1.00
296;DHT22;132;48.770;9.200;2023-02-15T06:38:02;-0.70;1.00
296;DHT22;132;48.770;9.200;2023-02-15T06:40:28;-0.70;1.00
296;DHT22;132;48.770;9.200;2023-02-15T06:42:54;-0.70;1.00
296;DHT22;132;48.770;9.200;2023-02-15T06:45:21;-0.60;1.00
296;DHT22;132;48.770;9.200;2023-02-15T06:47:48;-0.70;1.00
296;DHT22;132;48.770;9.200;2023-02-15T06:50:14;-0.70;1.00
296;DHT22;132;48.770;9.200;2023-02-15T06:52:40;-0.70;1.00
296;DHT22;132;48.770;9.200;2023-02-15T06:55:07;-0.60;1.00
296;DHT22;132;48.770;9.200;2023-02-15T06:57:37;-0.60;1.00
296;DHT22;132;48.770;9.200;2023-02-15T07:00:04;-0.60;1.00
296;DHT22;132;48.770;9.200;2023-02-15T07:02:31;-0.60;1.00
296;DHT22;132;48.770;9.200;2023-02-15T07:04:57;-0.60;1.00
296;DHT22;132;48.770;9.200;2023-02-15T07:07:24;-0.70;1.00
296;DHT22;132;48.770;9.200;2023-02-15T07:09:50;-0.60;1.00
296;DHT22;132;48.770;9.200;2023-02-15T07:12:17;-0.60;1.00
296;DHT22;132;48.770;9.200;2023-02-15T07:15:02;-0.60;1.00
296;DHT22;132;48.770;9.200;2023-02-15T07:17:30;-0.60;1.00
296;DHT22;132;48.770;9.200;2023-02-15T07:19:57;-0.60;1.00
296;DHT22;132;48.770;9.200;2023-02-15T07:22:24;-0.60;1.00
296;DHT22;132;48.770;9.200;2023-02-15T07:24:50;-0.50;1.00
296;DHT22;132;48.770;9.200;2023-02-15T07:27:21;-0.60;1.00
296;DHT22;132;48.770;9.200;2023-02-15T07:29:47;-0.60;1.00
296;DHT22;132;48.770;9.200;2023-02-15T07:32:14;-0.50;1.00
296;DHT22;132;48.770;9.200;2023-02-15T07:34:40;-0.50;1.00
296;DHT22;132;48.770;9.200;2023-02-15T07:37:07;-0.60;1.00
296;DHT22;132;48.770;9.200;2023-02-15T07:39:33;-0.50;1.00
296;DHT22;132;48.770;9.200;2023-02-15T07:42:00;-0.50;1.00
296;DHT22;132;48.770;9.200;2023-02-15T07:44:30;-0.60;1.00
296;DHT22;132;48.770;9.200;2023-02-15T07:46:56;-0.50;1.00
296;DHT22;132;48.770;9.200;2023-02-15T07:49:23;-0.50;1.00
296;DHT22;132;48.770;9.200;2023-02-15T07:51:49;-0.50;1.00
296;DHT22;132;48.770;9.200;2023-02-15T07:54:16;-0.50;1.00
296;DHT22;132;48.770;9.200;2023-02-15T07:56:42;0.10;1.00
296;DHT22;132;48.770;9.200;2023-02-15T07:59:09;-0.50;1.00
296;DHT22;132;48.770;9.200;2023-02-15T08:01:37;-0.40;1.00
296;DHT22;132;48.770;9.200;2023-02-15T08:04:05;-0.50;1.00
296;DHT22;132;48.770;9.200;2023-02-15T08:06:34;-0.40;1.00
296;DHT22;132;48.770;9.200;2023-02-15T08:09:03;-0.30;1.00
296;DHT22;132;48.770;9.200;2023-02-15T08:11:33;-0.30;1.00
296;DHT22;132;48.770;9.200;2023-02-15T08:14:19;-0.30;1.00
296;DHT22;132;48.770;9.200;2023-02-15T08:16:48;-0.30;1.00
296;DHT22;132;48.770;9.200;2023-02-15T08:19:22;-0.20;1.00
296;DHT22;132;48.770;9.200;2023-02-15T08:24:21;-0.10;1.00
296;DHT22;132;48.770;9.200;2023-02-15T08:26:48;-0.10;1.00
296;DHT22;132;48.770;9.200;2023-02-15T08:29:17;0.70;1.00
296;DHT22;132;48.770;9.200;2023-02-15T08:31:44;0.00;1.00
296;DHT22;132;48.770;9.200;2023-02-15T08:34:15;0.20;1.00
296;DHT22;132;48.770;9.200;2023-02-15T08:39:12;0.00;1.00
296;DHT22;132;48.770;9.200;2023-02-15T08:41:42;0.10;1.00
296;DHT22;132;48.770;9.200;2023-02-15T08:44:09;0.00;1.00
296;DHT22;132;48.770;9.200;2023-02-15T08:46:38;0.10;1.00
296;DHT22;132;48.770;9.200;2023-02-15T08:49:05;0.20;1.00
296;DHT22;132;48.770;9.200;2023-02-15T08:51:34;0.20;1.00
296;DHT22;132;48.770;9.200;2023-02-15T08:54:06;0.20;1.00
296;DHT22;132;48.770;9.200;2023-02-15T08:56:35;0.30;1.00
296;DHT22;132;48.770;9.200;2023-02-15T08:59:03;0.30;1.00
296;DHT22;132;48.770;9.200;2023-02-15T09:01:32;0.40;1.00
296;DHT22;132;48.770;9.200;2023-02-15T09:04:05;0.50;1.00
296;DHT22;132;48.770;9.200;2023-02-15T09:06:32;0.50;1.00
296;DHT22;132;48.770;9.200;2023-02-15T09:08:58;0.70;1.00
296;DHT22;132;48.770;9.200;2023-02-15T09:11:30;0.70;1.00
296;DHT22;132;48.770;9.200;2023-02-15T09:13:59;0.50;1.00
296;DHT22;132;48.770;9.200;2023-02-15T09:16:29;2.30;1.00
296;DHT22;132;48.770;9.200;2023-02-15T09:18:56;0.90;1.00
296;DHT22;132;48.770;9.200;2023-02-15T09:21:24;0.80;1.00
296;DHT22;132;48.770;9.200;2023-02-15T09:23:56;0.70;1.00
296;DHT22;132;48.770;9.200;2023-02-15T09:26:23;0.80;1.00
296;DHT22;132;48.770;9.200;2023-02-15T09:28:56;0.80;1.00
296;DHT22;132;48.770;9.200;2023-02-15T09:31:28;0.80;1.00
296;DHT22;132;48.770;9.200;2023-02-15T09:33:55;0.90;1.00
296;DHT22;132;48.770;9.200;2023-02-15T10:19:40;1.70;1.00
296;DHT22;132;48.770;9.200;2023-02-15T10:25:06;1.80;1.00
296;DHT22;132;48.770;9.200;2023-02-15T10:27:46;1.90;1.00
296;DHT22;132;48.770;9.200;2023-02-15T10:31:00;2.00;1.00
296;DHT22;132;48.770;9.200;2023-02-15T10:35:52;2.20;1.00
296;DHT22;132;48.770;9.200;2023-02-15T10:43:59;2.60;1.00
296;DHT22;132;48.770;9.200;2023-02-15T10:50:29;2.80;1.00
296;DHT22;132;48.770;9.200;2023-02-15T10:58:48;3.20;1.00
296;DHT22;132;48.770;9.200;2023-02-15T11:04:35;3.30;1.00
296;DHT22;132;48.770;9.200;2023-02-15T11:07:19;3.40;1.00
296;DHT22;132;48.770;9.200;2023-02-15T11:12:41;3.60;1.00
296;DHT22;132;48.770;9.200;2023-02-15T11:17:50;3.80;1.00
296;DHT22;132;48.770;9.200;2023-02-15T11:20:29;3.90;1.00
296;DHT22;132;48.770;9.200;2023-02-15T11:22:56;3.90;1.00
296;DHT22;132;48.770;9.200;2023-02-15T11:25:28;4.00;1.00
296;DHT22;132;48.770;9.200;2023-02-15T11:27:56;4.10;1.00
296;DHT22;132;48.770;9.200;2023-02-15T11:30:25;4.20;1.00
296;DHT22;132;48.770;9.200;2023-02-15T11:32:56;4.20;1.00
296;DHT22;132;48.770;9.200;2023-02-15T11:35:37;4.40;1.00
296;DHT22;132;48.770;9.200;2023-02-15T11:38:20;4.50;1.00
296;DHT22;132;48.770;9.200;2023-02-15T11:40:49;4.50;1.00
296;DHT22;132;48.770;9.200;2023-02-15T11:43:26;4.60;1.00
296;DHT22;132;48.770;9.200;2023-02-15T11:45:55;4.60;1.00
296;DHT22;132;48.770;9.200;2023-02-15T11:48:21;4.70;1.00
296;DHT22;132;48.770;9.200;2023-02-15T11:50:48;4.70;1.00
296;DHT22;132;48.770;9.200;2023-02-15T11:53:20;4.80;1.00
296;DHT22;132;48.770;9.200;2023-02-15T11:55:48;4.90;1.00
296;DHT22;132;48.770;9.200;2023-02-15T12:01:09;5.10;1.00
296;DHT22;132;48.770;9.200;2023-02-15T12:04:06;5.10;1.00
296;DHT22;132;48.770;9.200;2023-02-15T12:06:44;5.20;1.00
296;DHT22;132;48.770;9.200;2023-02-15T12:09:34;5.20;1.00
296;DHT22;132;48.770;9.200;2023-02-15T12:12:27;5.20;1.00
296;DHT22;132;48.770;9.200;2023-02-15T12:14:56;5.30;1.00
296;DHT22;132;48.770;9.200;2023-02-15T12:17:35;5.30;1.00
296;DHT22;132;48.770;9.200;2023-02-15T12:22:36;5.50;1.00
296;DHT22;132;48.770;9.200;2023-02-15T12:25:42;5.50;1.00
296;DHT22;132;48.770;9.200;2023-02-15T12:28:34;5.60;1.00
296;DHT22;132;48.770;9.200;2023-02-15T12:31:07;5.60;1.00
296;DHT22;132;48.770;9.200;2023-02-15T12:33:36;5.70;1.00
296;DHT22;132;48.770;9.200;2023-02-15T12:36:11;5.80;1.00
296;DHT22;132;48.770;9.200;2023-02-15T12:38:38;5.80;1.00
296;DHT22;132;48.770;9.200;2023-02-15T12:46:30;6.00;1.00
296;DHT22;132;48.770;9.200;2023-02-15T12:51:54;6.10;1.00
296;DHT22;132;48.770;9.200;2023-02-15T12:54:37;6.20;1.00
296;DHT22;132;48.770;9.200;2023-02-15T13:00:04;6.30;1.00
296;DHT22;132;48.770;9.200;2023-02-15T13:02:34;6.40;1.00
296;DHT22;132;48.770;9.200;2023-02-15T13:08:17;6.50;1.00
296;DHT22;132;48.770;9.200;2023-02-15T13:10:59;6.70;1.00
296;DHT22;132;48.770;9.200;2023-02-15T13:13:28;6.90;1.00
296;DHT22;132;48.770;9.200;2023-02-15T13:16:02;6.80;1.00
296;DHT22;132;48.770;9.200;2023-02-15T13:19:02;6.90;1.00
296;DHT22;132;48.770;9.200;2023-02-15T13:21:35;7.40;1.00
296;DHT22;132;48.770;9.200;2023-02-15T13:26:34;7.10;1.00
296;DHT22;132;48.770;9.200;2023-02-15T13:29:11;7.10;1.00
296;DHT22;132;48.770;9.200;2023-02-15T13:31:42;7.20;1.00
296;DHT22;132;48.770;9.200;2023-02-15T13:34:17;7.10;1.00
296;DHT22;132;48.770;9.200;2023-02-15T13:37:02;7.20;1.00
296;DHT22;132;48.770;9.200;2023-02-15T13:39:39;7.40;1.00
296;DHT22;132;48.770;9.200;2023-02-15T14:07:19;7.80;1.00
296;DHT22;132;48.770;9.200;2023-02-15T14:10:01;7.90;1.00
296;DHT22;132;48.770;9.200;2023-02-15T14:15:33;8.80;1.00
296;DHT22;132;48.770;9.200;2023-02-15T14:21:16;8.80;1.00
296;DHT22;132;48.770;9.200;2023-02-15T14:29:38;8.30;1.00
296;DHT22;132;48.770;9.200;2023-02-15T14:32:27;8.40;1.00
296;DHT22;132;48.770;9.200;2023-02-15T14:34:59;8.50;1.00
296;DHT22;132;48.770;9.200;2023-02-15T14:40:26;8.60;1.00
296;DHT22;132;48.770;9.200;2023-02-15T14:46:07;8.60;1.00
296;DHT22;132;48.770;9.200;2023-02-15T14:48:48;8.60;1.00
296;DHT22;132;48.770;9.200;2023-02-15T14:59:50;8.70;1.00
296;DHT22;132;48.770;9.200;2023-02-15T15:02:19;8.80;1.00
296;DHT22;132;48.770;9.200;2023-02-15T15:05:06;8.70;1.00
296;DHT22;132;48.770;9.200;2023-02-15T15:07:48;8.80;1.00
296;DHT22;132;48.770;9.200;2023-02-15T15:12:49;9.00;1.00
296;DHT22;132;48.770;9.200;2023-02-15T15:20:49;9.00;1.00
296;DHT22;132;48.770;9.200;2023-02-15T15:25:47;9.00;1.00
296;DHT22;132;48.770;9.200;2023-02-15T15:37:18;8.80;1.00
296;DHT22;132;48.770;9.200;2023-02-15T15:51:05;8.40;1.00
296;DHT22;132;48.770;9.200;2023-02-15T15:53:42;8.00;1.00
296;DHT22;132;48.770;9.200;2023-02-15T15:56:17;8.20;1.00
296;DHT22;132;48.770;9.200;2023-02-15T15:58:53;7.90;1.00
296;DHT22;132;48.770;9.200;2023-02-15T16:01:28;7.70;1.00
296;DHT22;132;48.770;9.200;2023-02-15T16:03:57;7.50;1.00
296;DHT22;132;48.770;9.200;2023-02-15T16:06:38;7.40;1.00
296;DHT22;132;48.770;9.200;2023-02-15T16:09:15;7.30;1.00
296;DHT22;132;48.770;9.200;2023-02-15T16:11:43;7.20;1.00
296;DHT22;132;48.770;9.200;2023-02-15T16:14:22;7.20;1.00
296;DHT22;132;48.770;9.200;2023-02-15T16:16:53;7.20;1.00
296;DHT22;132;48.770;9.200;2023-02-15T16:19:24;7.00;1.00
296;DHT22;132;48.770;9.200;2023-02-15T16:21:52;6.90;1.00
296;DHT22;132;48.770;9.200;2023-02-15T16:29:35;6.70;1.00
296;DHT22;132;48.770;9.200;2023-02-15T16:32:16;6.60;1.00
296;DHT22;132;48.770;9.200;2023-02-15T16:34:58;6.50;1.00
296;DHT22;132;48.770;9.200;2023-02-15T16:37:33;6.40;1.00
296;DHT22;132;48.770;9.200;2023-02-15T16:39:59;6.30;1.00
296;DHT22;132;48.770;9.200;2023-02-15T16:42:26;6.30;1.00
296;DHT22;132;48.770;9.200;2023-02-15T16:45:08;6.30;1.00
296;DHT22;132;48.770;9.200;2023-02-15T16:47:41;6.20;1.00
296;DHT22;132;48.770;9.200;2023-02-15T16:50:23;6.10;1.00
296;DHT22;132;48.770;9.200;2023-02-15T16:52:51;6.00;1.00
296;DHT22;132;48.770;9.200;2023-02-15T16:55:26;5.90;1.00
296;DHT22;132;48.770;9.200;2023-02-15T16:58:00;5.90;1.00
296;DHT22;132;48.770;9.200;2023-02-15T17:00:31;5.90;1.00
296;DHT22;132;48.770;9.200;2023-02-15T17:08:33;5.70;1.00
296;DHT22;132;48.770;9.200;2023-02-15T17:11:15;5.70;1.00
296;DHT22;132;48.770;9.200;2023-02-15T17:14:13;5.70;1.00
296;DHT22;132;48.770;9.200;2023-02-15T17:17:12;5.60;1.00
296;DHT22;132;48.770;9.200;2023-02-15T17:19:53;5.60;1.00
296;DHT22;132;48.770;9.200;2023-02-15T17:22:25;5.60;1.00
296;DHT22;132;48.770;9.200;2023-02-15T17:25:02;5.40;1.00
296;DHT22;132;48.770;9.200;2023-02-15T17:27:30;5.50;1.00
296;DHT22;132;48.770;9.200;2023-02-15T17:30:01;5.40;1.00
296;DHT22;132;48.770;9.200;2023-02-15T17:32:30;5.40;1.00
296;DHT22;132;48.770;9.200;2023-02-15T17:34:59;5.30;1.00
296;DHT22;132;48.770;9.200;2023-02-15T17:37:31;5.30;1.00
296;DHT22;132;48.770;9.200;2023-02-15T17:40:19;5.30;1.00
296;DHT22;132;48.770;9.200;2023-02-15T17:42:46;5.70;1.00
296;DHT22;132;48.770;9.200;2023-02-15T17:45:13;5.30;1.00
296;DHT22;132;48.770;9.200;2023-02-15T17:47:40;5.40;1.00
296;DHT22;132;48.770;9.200;2023-02-15T17:50:07;5.30;1.00
296;DHT22;132;48.770;9.200;2023-02-15T17:52:36;5.30;1.00
296;DHT22;132;48.770;9.200;2023-02-15T17:55:12;5.30;1.00
296;DHT22;132;48.770;9.200;2023-02-15T17:57:57;5.30;1.00
296;DHT22;132;48.770;9.200;2023-02-15T18:00:23;5.30;1.00
296;DHT22;132;48.770;9.200;2023-02-15T18:03:12;5.30;1.00
296;DHT22;132;48.770;9.200;2023-02-15T18:05:57;5.10;1.00
296;DHT22;132;48.770;9.200;2023-02-15T18:08:42;5.10;1.00
296;DHT22;132;48.770;9.200;2023-02-15T18:11:28;5.00;1.00
296;DHT22;132;48.770;9.200;2023-02-15T18:14:09;5.00;1.00
296;DHT22;132;48.770;9.200;2023-02-15T18:16:38;4.90;1.00
296;DHT22;132;48.770;9.200;2023-02-15T18:19:19;4.90;1.00
296;DHT22;132;48.770;9.200;2023-02-15T18:21:47;4.90;1.00
296;DHT22;132;48.770;9.200;2023-02-15T18:24:19;4.80;1.00
296;DHT22;132;48.770;9.200;2023-02-15T18:26:47;4.80;1.00
296;DHT22;132;48.770;9.200;2023-02-15T18:29:14;4.70;1.00
296;DHT22;132;48.770;9.200;2023-02-15T18:31:41;4.70;1.00
296;DHT22;132;48.770;9.200;2023-02-15T18:34:30;4.70;1.00
296;DHT22;132;48.770;9.200;2023-02-15T18:36:58;4.70;1.00
296;DHT22;132;48.770;9.200;2023-02-15T18:39:31;4.60;1.00
296;DHT22;132;48.770;9.200;2023-02-15T18:41:59;4.60;1.00
296;DHT22;132;48.770;9.200;2023-02-15T18:44:25;4.80;1.00
296;DHT22;132;48.770;9.200;2023-02-15T18:46:52;4.60;1.00
296;DHT22;132;48.770;9.200;2023-02-15T18:49:18;4.60;1.00
296;DHT22;132;48.770;9.200;2023-02-15T18:51:45;4.60;1.00
296;DHT22;132;48.770;9.200;2023-02-15T18:54:17;4.50;1.00
296;DHT22;132;48.770;9.200;2023-02-15T18:56:50;4.50;1.00
296;DHT22;132;48.770;9.200;2023-02-15T18:59:18;4.40;1.00
296;DHT22;132;48.770;9.200;2023-02-15T19:01:44;4.40;1.00
296;DHT22;132;48.770;9.200;2023-02-15T19:04:11;4.40;1.00
296;DHT22;132;48.770;9.200;2023-02-15T19:06:40;4.40;1.00
296;DHT22;132;48.770;9.200;2023-02-15T19:09:16;4.30;1.00
296;DHT22;132;48.770;9.200;2023-02-15T19:11:48;4.30;1.00
296;DHT22;132;48.770;9.200;2023-02-15T19:14:29;4.30;1.00
296;DHT22;132;48.770;9.200;2023-02-15T19:16:58;4.30;1.00
296;DHT22;132;48.770;9.200;2023-02-15T19:19:25;4.30;1.00
296;DHT22;132;48.770;9.200;2023-02-15T19:21:52;4.30;1.00
296;DHT22;132;48.770;9.200;2023-02-15T19:24:25;4.30;1.00
296;DHT22;132;48.770;9.200;2023-02-15T19:26:54;4.30;1.00
296;DHT22;132;48.770;9.200;2023-02-15T19:29:28;4.30;1.00
296;DHT22;132;48.770;9.200;2023-02-15T19:31:55;4.30;1.00
296;DHT22;132;48.770;9.200;2023-02-15T19:34:23;4.30;1.00
296;DHT22;132;48.770;9.200;2023-02-15T19:36:51;4.50;1.00
296;DHT22;132;48.770;9.200;2023-02-15T19:41:51;4.30;1.00
296;DHT22;132;48.770;9.200;2023-02-15T19:44:17;4.30;1.00
296;DHT22;132;48.770;9.200;2023-02-15T19:46:44;4.30;1.00
296;DHT22;132;48.770;9.200;2023-02-15T19:49:11;4.30;1.00
296;DHT22;132;48.770;9.200;2023-02-15T19:51:38;4.30;1.00
296;DHT22;132;48.770;9.200;2023-02-15T19:56:45;4.30;1.00
296;DHT22;132;48.770;9.200;2023-02-15T19:59:24;4.30;1.00
296;DHT22;132;48.770;9.200;2023-02-15T20:01:51;4.30;1.00
296;DHT22;132;48.770;9.200;2023-02-15T20:04:18;4.20;1.00
296;DHT22;132;48.770;9.200;2023-02-15T20:06:47;4.20;1.00
296;DHT22;132;48.770;9.200;2023-02-15T20:09:21;4.20;1.00
296;DHT22;132;48.770;9.200;2023-02-15T20:11:50;4.30;1.00
296;DHT22;132;48.770;9.200;2023-02-15T20:14:17;4.30;1.00
296;DHT22;132;48.770;9.200;2023-02-15T20:16:44;4.30;1.00
296;DHT22;132;48.770;9.200;2023-02-15T20:19:11;4.30;1.00
296;DHT22;132;48.770;9.200;2023-02-15T20:21:39;4.20;1.00
296;DHT22;132;48.770;9.200;2023-02-15T20:24:14;4.20;1.00
296;DHT22;132;48.770;9.200;2023-02-15T20:26:41;4.20;1.00
296;DHT22;132;48.770;9.200;2023-02-15T20:29:16;4.20;1.00
296;DHT22;132;48.770;9.200;2023-02-15T20:31:44;4.30;1.00
296;DHT22;132;48.770;9.200;2023-02-15T20:34:10;4.30;1.00
296;DHT22;132;48.770;9.200;2023-02-15T20:36:37;4.30;1.00
296;DHT22;132;48.770;9.200;2023-02-15T20:39:15;4.30;1.00
296;DHT22;132;48.770;9.200;2023-02-15T20:41:43;4.30;1.00
296;DHT22;132;48.770;9.200;2023-02-15T20:44:28;4.70;1.00
296;DHT22;132;48.770;9.200;2023-02-15T20:46:57;4.30;1.00
296;DHT22;132;48.770;9.200;2023-02-15T20:49:25;4.30;1.00
296;DHT22;132;48.770;9.200;2023-02-15T20:51:53;4.30;1.00
296;DHT22;132;48.770;9.200;2023-02-15T20:54:21;4.20;1.00
296;DHT22;132;48.770;9.200;2023-02-15T20:56:49;4.30;1.00
296;DHT22;132;48.770;9.200;2023-02-15T20:59:21;4.30;1.00
296;DHT22;132;48.770;9.200;2023-02-15T21:01:50;4.20;1.00
296;DHT22;132;48.770;9.200;2023-02-15T21:04:22;4.10;1.00
296;DHT22;132;48.770;9.200;2023-02-15T21:06:48;4.20;1.00
296;DHT22;132;48.770;9.200;2023-02-15T21:09:16;4.20;1.00
296;DHT22;132;48.770;9.200;2023-02-15T21:11:43;4.10;1.00
296;DHT22;132;48.770;9.200;2023-02-15T21:14:21;4.20;1.00
296;DHT22;132;48.770;9.200;2023-02-15T21:16:49;4.20;1.00
296;DHT22;132;48.770;9.200;2023-02-15T21:19:18;4.20;1.00
296;DHT22;132;48.770;9.200;2023-02-15T21:21:46;4.10;1.00